sensor_id;sensor_type;location;lat;lon;timestamp;pressure;altitude;pressure_sealevel;temperature;humidity
61035;BME280;46916;40.564;-7.958;2023-02-03T00:01:16;98732.69;;;7.49;64.36
61035;BME280;46916;40.564;-7.958;2023-02-03T00:03:17;98738.69;;;7.51;64.19
61035;BME280;46916;40.564;-7.958;2023-02-03T00:05:18;98734.31;;;7.52;64.68
61035;BME280;46916;40.564;-7.958;2023-02-03T00:07:19;98740.75;;;7.44;64.74
61035;BME280;46916;40.564;-7.958;2023-02-03T00:09:19;98733.00;;;7.43;64.65
61035;BME280;46916;40.564;-7.958;2023-02-03T00:11:21;98731.31;;;7.42;64.78
61035;BME280;46916;40.564;-7.958;2023-02-03T00:13:21;98736.50;;;7.42;64.83
61035;BME280;46916;40.564;-7.958;2023-02-03T00:15:23;98741.50;;;7.47;64.65
61035;BME280;46916;40.564;-7.958;2023-02-03T00:17:23;98737.91;;;7.49;64.49
61035;BME280;46916;40.564;-7.958;2023-02-03T00:19:24;98736.13;;;7.50;64.78
61035;BME280;46916;40.564;-7.958;2023-02-03T00:21:25;98735.97;;;7.53;64.48
61035;BME280;46916;40.564;-7.958;2023-02-03T00:23:26;98733.22;;;7.56;64.46
61035;BME280;46916;40.564;-7.958;2023-02-03T00:25:29;98731.38;;;7.58;64.31
61035;BME280;46916;40.564;-7.958;2023-02-03T00:27:31;98729.00;;;7.53;64.37
61035;BME280;46916;40.564;-7.958;2023-02-03T00:29:32;98729.94;;;7.52;64.73
61035;BME280;46916;40.564;-7.958;2023-02-03T00:31:32;98723.94;;;7.50;64.50
61035;BME280;46916;40.564;-7.958;2023-02-03T00:33:33;98725.78;;;7.48;64.55
61035;BME280;46916;40.564;-7.958;2023-02-03T00:35:38;98721.50;;;7.47;64.68
61035;BME280;46916;40.564;-7.958;2023-02-03T00:37:39;98718.97;;;7.45;64.58
61035;BME280;46916;40.564;-7.958;2023-02-03T00:39:40;98732.31;;;7.39;64.82
61035;BME280;46916;40.564;-7.958;2023-02-03T00:41:41;98723.56;;;7.40;65.15
61035;BME280;46916;40.564;-7.958;2023-02-03T00:43:42;98733.16;;;7.40;64.79
61035;BME280;46916;40.564;-7.958;2023-02-03T00:45:43;98727.84;;;7.41;64.77
61035;BME280;46916;40.564;-7.958;2023-02-03T00:47:44;98723.44;;;7.43;64.99
61035;BME280;46916;40.564;-7.958;2023-02-03T00:49:44;98724.16;;;7.45;64.63
61035;BME280;46916;40.564;-7.958;2023-02-03T00:51:45;98720.72;;;7.45;64.80
61035;BME280;46916;40.564;-7.958;2023-02-03T00:53:48;98722.50;;;7.44;64.57
61035;BME280;46916;40.564;-7.958;2023-02-03T00:55:48;98721.72;;;7.42;64.48
61035;BME280;46916;40.564;-7.958;2023-02-03T00:57:49;98719.19;;;7.41;64.55
61035;BME280;46916;40.564;-7.958;2023-02-03T00:59:50;98727.81;;;7.43;64.56
61035;BME280;46916;40.564;-7.958;2023-02-03T01:01:50;98727.16;;;7.38;64.86
61035;BME280;46916;40.564;-7.958;2023-02-03T01:03:54;98725.50;;;7.37;65.20
61035;BME280;46916;40.564;-7.958;2023-02-03T01:05:55;98717.66;;;7.37;65.33
61035;BME280;46916;40.564;-7.958;2023-02-03T01:07:56;98729.78;;;7.38;64.89
61035;BME280;46916;40.564;-7.958;2023-02-03T01:09:56;98725.41;;;7.38;65.19
61035;BME280;46916;40.564;-7.958;2023-02-03T01:11:57;98727.94;;;7.40;64.85
61035;BME280;46916;40.564;-7.958;2023-02-03T01:13:58;98727.72;;;7.44;64.94
61035;BME280;46916;40.564;-7.958;2023-02-03T01:16:01;98730.16;;;7.48;65.03
61035;BME280;46916;40.564;-7.958;2023-02-03T01:18:03;98731.69;;;7.52;64.89
61035;BME280;46916;40.564;-7.958;2023-02-03T01:20:04;98736.22;;;7.48;64.96
61035;BME280;46916;40.564;-7.958;2023-02-03T01:22:05;98736.28;;;7.47;65.00
61035;BME280;46916;40.564;-7.958;2023-02-03T01:24:05;98738.00;;;7.48;65.04
61035;BME280;46916;40.564;-7.958;2023-02-03T01:26:09;98737.28;;;7.44;64.93
61035;BME280;46916;40.564;-7.958;2023-02-03T01:28:10;98735.81;;;7.38;64.97
61035;BME280;46916;40.564;-7.958;2023-02-03T01:30:11;98735.16;;;7.35;65.37
61035;BME280;46916;40.564;-7.958;2023-02-03T01:32:12;98734.38;;;7.33;65.57
61035;BME280;46916;40.564;-7.958;2023-02-03T01:34:13;98739.44;;;7.36;65.32
61035;BME280;46916;40.564;-7.958;2023-02-03T01:36:17;98727.25;;;7.36;65.03
61035;BME280;46916;40.564;-7.958;2023-02-03T01:38:17;98733.22;;;7.38;65.23
61035;BME280;46916;40.564;-7.958;2023-02-03T01:40:18;98727.25;;;7.36;64.90
61035;BME280;46916;40.564;-7.958;2023-02-03T01:42:19;98726.31;;;7.37;65.33
61035;BME280;46916;40.564;-7.958;2023-02-03T01:44:45;98725.56;;;7.35;65.17
61035;BME280;46916;40.564;-7.958;2023-02-03T01:46:48;98730.69;;;7.37;65.29
61035;BME280;46916;40.564;-7.958;2023-02-03T01:48:52;98734.25;;;7.36;65.34
61035;BME280;46916;40.564;-7.958;2023-02-03T01:50:53;98726.31;;;7.37;65.18
61035;BME280;46916;40.564;-7.958;2023-02-03T01:53:00;98724.50;;;7.39;65.43
61035;BME280;46916;40.564;-7.958;2023-02-03T01:55:04;98721.22;;;7.36;65.46
61035;BME280;46916;40.564;-7.958;2023-02-03T01:57:21;98729.16;;;7.33;65.48
61035;BME280;46916;40.564;-7.958;2023-02-03T01:59:25;98724.06;;;7.31;65.75
61035;BME280;46916;40.564;-7.958;2023-02-03T02:01:28;98725.13;;;7.27;65.59
61035;BME280;46916;40.564;-7.958;2023-02-03T02:03:43;98726.09;;;7.25;65.82
61035;BME280;46916;40.564;-7.958;2023-02-03T02:05:51;98726.34;;;7.20;65.63
61035;BME280;46916;40.564;-7.958;2023-02-03T02:07:55;98725.50;;;7.19;66.05
61035;BME280;46916;40.564;-7.958;2023-02-03T02:09:58;98730.78;;;7.18;66.15
61035;BME280;46916;40.564;-7.958;2023-02-03T02:11:59;98729.94;;;7.17;65.65
61035;BME280;46916;40.564;-7.958;2023-02-03T02:14:01;98732.53;;;7.17;65.86
61035;BME280;46916;40.564;-7.958;2023-02-03T02:16:44;98728.16;;;7.18;65.90
61035;BME280;46916;40.564;-7.958;2023-02-03T02:41:03;98732.09;;;7.44;64.72
61035;BME280;46916;40.564;-7.958;2023-02-03T02:43:20;98738.03;;;7.46;64.97
61035;BME280;46916;40.564;-7.958;2023-02-03T02:45:29;98740.50;;;7.49;64.67
61035;BME280;46916;40.564;-7.958;2023-02-03T02:47:32;98735.13;;;7.52;64.78
61035;BME280;46916;40.564;-7.958;2023-02-03T02:49:41;98742.72;;;7.57;64.68
61035;BME280;46916;40.564;-7.958;2023-02-03T02:51:45;98739.13;;;7.59;64.65
61035;BME280;46916;40.564;-7.958;2023-02-03T02:53:56;98741.63;;;7.61;64.24
61035;BME280;46916;40.564;-7.958;2023-02-03T02:56:00;98744.16;;;7.62;64.65
61035;BME280;46916;40.564;-7.958;2023-02-03T02:58:06;98743.31;;;7.62;64.42
61035;BME280;46916;40.564;-7.958;2023-02-03T03:00:08;98745.00;;;7.63;64.36
61035;BME280;46916;40.564;-7.958;2023-02-03T03:02:10;98745.09;;;7.61;64.21
61035;BME280;46916;40.564;-7.958;2023-02-03T03:04:16;98741.56;;;7.62;64.22
61035;BME280;46916;40.564;-7.958;2023-02-03T03:06:32;98746.84;;;7.61;64.35
61035;BME280;46916;40.564;-7.958;2023-02-03T03:10:42;98742.63;;;7.58;64.87
61035;BME280;46916;40.564;-7.958;2023-02-03T03:12:49;98739.13;;;7.59;64.31
61035;BME280;46916;40.564;-7.958;2023-02-03T03:15:02;98740.94;;;7.57;64.36
61035;BME280;46916;40.564;-7.958;2023-02-03T03:17:06;98739.97;;;7.60;64.05
61035;BME280;46916;40.564;-7.958;2023-02-03T03:19:13;98744.34;;;7.59;64.47
61035;BME280;46916;40.564;-7.958;2023-02-03T03:21:22;98742.63;;;7.58;64.08
61035;BME280;46916;40.564;-7.958;2023-02-03T03:23:30;98743.47;;;7.59;64.25
61035;BME280;46916;40.564;-7.958;2023-02-03T03:25:40;98742.47;;;7.61;64.36
61035;BME280;46916;40.564;-7.958;2023-02-03T03:27:48;98738.19;;;7.60;64.36
61035;BME280;46916;40.564;-7.958;2023-02-03T03:29:55;98738.94;;;7.62;64.37
61035;BME280;46916;40.564;-7.958;2023-02-03T03:31:57;98735.50;;;7.62;64.43
61035;BME280;46916;40.564;-7.958;2023-02-03T03:33:58;98732.97;;;7.60;64.22
61035;BME280;46916;40.564;-7.958;2023-02-03T03:36:03;98732.97;;;7.60;64.16
61035;BME280;46916;40.564;-7.958;2023-02-03T03:38:15;98735.59;;;7.60;64.18
61035;BME280;46916;40.564;-7.958;2023-02-03T03:40:26;98726.84;;;7.61;64.28
61035;BME280;46916;40.564;-7.958;2023-02-03T03:45:06;98723.47;;;7.59;64.21
61035;BME280;46916;40.564;-7.958;2023-02-03T03:47:35;98729.59;;;7.58;64.25
61035;BME280;46916;40.564;-7.958;2023-02-03T03:49:34;98733.22;;;7.56;64.04
61035;BME280;46916;40.564;-7.958;2023-02-03T03:51:46;98728.31;;;7.50;64.41
61035;BME280;46916;40.564;-7.958;2023-02-03T03:53:49;98731.94;;;7.47;64.15
61035;BME280;46916;40.564;-7.958;2023-02-03T03:55:52;98734.84;;;7.41;64.24
61035;BME280;46916;40.564;-7.958;2023-02-03T03:57:58;98739.34;;;7.37;64.38
61035;BME280;46916;40.564;-7.958;2023-02-03T04:00:03;98737.13;;;7.30;64.47
61035;BME280;46916;40.564;-7.958;2023-02-03T04:02:12;98742.59;;;7.25;64.51
61035;BME280;46916;40.564;-7.958;2023-02-03T04:04:14;98742.81;;;7.20;64.43
61035;BME280;46916;40.564;-7.958;2023-02-03T04:06:15;98730.13;;;7.14;64.89
61035;BME280;46916;40.564;-7.958;2023-02-03T04:08:16;98739.75;;;7.12;65.18
61035;BME280;46916;40.564;-7.958;2023-02-03T04:10:37;98738.06;;;7.11;65.17
61035;BME280;46916;40.564;-7.958;2023-02-03T04:12:39;98741.44;;;7.13;65.20
61035;BME280;46916;40.564;-7.958;2023-02-03T04:14:40;98737.94;;;7.14;64.96
61035;BME280;46916;40.564;-7.958;2023-02-03T04:16:41;98744.03;;;7.13;65.32
61035;BME280;46916;40.564;-7.958;2023-02-03T04:18:42;98739.91;;;7.09;65.22
61035;BME280;46916;40.564;-7.958;2023-02-03T04:20:42;98745.09;;;7.09;64.93
61035;BME280;46916;40.564;-7.958;2023-02-03T04:22:43;98740.06;;;7.06;65.36
61035;BME280;46916;40.564;-7.958;2023-02-03T04:24:44;98739.19;;;7.06;65.46
61035;BME280;46916;40.564;-7.958;2023-02-03T04:26:44;98743.56;;;7.05;65.17
61035;BME280;46916;40.564;-7.958;2023-02-03T04:28:45;98735.00;;;7.03;65.02
61035;BME280;46916;40.564;-7.958;2023-02-03T04:30:46;98742.03;;;7.01;65.49
61035;BME280;46916;40.564;-7.958;2023-02-03T04:32:46;98740.34;;;7.00;65.56
61035;BME280;46916;40.564;-7.958;2023-02-03T04:34:47;98742.13;;;7.00;65.50
61035;BME280;46916;40.564;-7.958;2023-02-03T04:36:47;98750.78;;;7.00;65.52
61035;BME280;46916;40.564;-7.958;2023-02-03T04:38:49;98743.88;;;6.99;65.09
61035;BME280;46916;40.564;-7.958;2023-02-03T04:40:49;98739.44;;;7.01;65.55
61035;BME280;46916;40.564;-7.958;2023-02-03T04:42:50;98741.16;;;7.02;65.29
61035;BME280;46916;40.564;-7.958;2023-02-03T04:44:51;98738.75;;;6.98;65.10
61035;BME280;46916;40.564;-7.958;2023-02-03T04:46:52;98741.34;;;6.98;65.35
61035;BME280;46916;40.564;-7.958;2023-02-03T04:48:53;98739.53;;;7.00;65.48
61035;BME280;46916;40.564;-7.958;2023-02-03T04:50:53;98748.09;;;7.02;65.17
61035;BME280;46916;40.564;-7.958;2023-02-03T04:52:54;98740.34;;;7.00;65.46
61035;BME280;46916;40.564;-7.958;2023-02-03T04:54:54;98743.94;;;6.98;65.29
61035;BME280;46916;40.564;-7.958;2023-02-03T04:56:55;98741.34;;;6.98;65.49
61035;BME280;46916;40.564;-7.958;2023-02-03T04:58:56;98745.81;;;6.95;65.34
61035;BME280;46916;40.564;-7.958;2023-02-03T05:00:56;98743.19;;;6.95;65.14
61035;BME280;46916;40.564;-7.958;2023-02-03T05:02:57;98738.97;;;6.93;65.25
61035;BME280;46916;40.564;-7.958;2023-02-03T05:04:58;98742.50;;;6.92;65.23
61035;BME280;46916;40.564;-7.958;2023-02-03T05:06:59;98746.88;;;6.91;65.55
61035;BME280;46916;40.564;-7.958;2023-02-03T05:08:59;98739.97;;;6.90;65.20
61035;BME280;46916;40.564;-7.958;2023-02-03T05:11:00;98746.03;;;6.91;65.20
61035;BME280;46916;40.564;-7.958;2023-02-03T05:13:01;98748.41;;;6.95;65.48
61035;BME280;46916;40.564;-7.958;2023-02-03T05:15:02;98753.38;;;7.00;65.47
61035;BME280;46916;40.564;-7.958;2023-02-03T05:17:03;98742.03;;;7.01;65.18
61035;BME280;46916;40.564;-7.958;2023-02-03T05:19:04;98749.84;;;7.01;65.10
61035;BME280;46916;40.564;-7.958;2023-02-03T05:21:05;98750.16;;;6.95;65.32
61035;BME280;46916;40.564;-7.958;2023-02-03T05:23:06;98753.69;;;6.94;65.38
61035;BME280;46916;40.564;-7.958;2023-02-03T05:25:07;98754.06;;;6.86;65.27
61035;BME280;46916;40.564;-7.958;2023-02-03T05:27:07;98763.00;;;6.81;65.57
61035;BME280;46916;40.564;-7.958;2023-02-03T05:29:08;98764.84;;;6.79;65.55
61035;BME280;46916;40.564;-7.958;2023-02-03T05:31:11;98759.63;;;6.79;66.06
61035;BME280;46916;40.564;-7.958;2023-02-03T05:33:11;98757.88;;;6.79;65.86
61035;BME280;46916;40.564;-7.958;2023-02-03T05:35:12;98761.41;;;6.78;65.67
61035;BME280;46916;40.564;-7.958;2023-02-03T05:37:13;98763.09;;;6.79;65.43
61035;BME280;46916;40.564;-7.958;2023-02-03T05:39:13;98763.00;;;6.81;65.86
61035;BME280;46916;40.564;-7.958;2023-02-03T05:41:14;98765.47;;;6.84;65.88
61035;BME280;46916;40.564;-7.958;2023-02-03T05:43:34;98761.94;;;6.85;65.68
61035;BME280;46916;40.564;-7.958;2023-02-03T05:45:34;98766.25;;;6.86;65.54
61035;BME280;46916;40.564;-7.958;2023-02-03T05:47:35;98766.38;;;6.83;65.88
61035;BME280;46916;40.564;-7.958;2023-02-03T05:49:36;98760.34;;;6.82;65.29
61035;BME280;46916;40.564;-7.958;2023-02-03T05:51:37;98769.28;;;6.77;65.50
61035;BME280;46916;40.564;-7.958;2023-02-03T05:53:38;98765.91;;;6.75;65.75
61035;BME280;46916;40.564;-7.958;2023-02-03T05:55:39;98765.06;;;6.74;65.94
61035;BME280;46916;40.564;-7.958;2023-02-03T05:57:40;98773.03;;;6.71;66.18
61035;BME280;46916;40.564;-7.958;2023-02-03T05:59:41;98768.66;;;6.72;65.92
61035;BME280;46916;40.564;-7.958;2023-02-03T06:01:42;98764.44;;;6.69;65.91
61035;BME280;46916;40.564;-7.958;2023-02-03T06:03:43;98769.84;;;6.64;66.34
61035;BME280;46916;40.564;-7.958;2023-02-03T06:05:43;98771.69;;;6.62;66.21
61035;BME280;46916;40.564;-7.958;2023-02-03T06:07:46;98770.88;;;6.62;66.80
61035;BME280;46916;40.564;-7.958;2023-02-03T06:09:46;98769.09;;;6.62;66.02
61035;BME280;46916;40.564;-7.958;2023-02-03T06:11:48;98773.28;;;6.65;66.01
61035;BME280;46916;40.564;-7.958;2023-02-03T06:13:49;98780.13;;;6.67;66.47
61035;BME280;46916;40.564;-7.958;2023-02-03T06:15:50;98778.44;;;6.66;66.13
61035;BME280;46916;40.564;-7.958;2023-02-03T06:17:50;98773.28;;;6.65;66.23
61035;BME280;46916;40.564;-7.958;2023-02-03T06:19:51;98785.47;;;6.64;66.46
61035;BME280;46916;40.564;-7.958;2023-02-03T06:21:52;98778.50;;;6.65;66.67
61035;BME280;46916;40.564;-7.958;2023-02-03T06:23:52;98789.84;;;6.64;66.12
61035;BME280;46916;40.564;-7.958;2023-02-03T06:25:53;98791.75;;;6.60;66.54
61035;BME280;46916;40.564;-7.958;2023-02-03T06:27:54;98786.75;;;6.56;66.88
61035;BME280;46916;40.564;-7.958;2023-02-03T06:29:55;98789.44;;;6.54;66.47
61035;BME280;46916;40.564;-7.958;2023-02-03T06:31:56;98788.66;;;6.52;66.85
61035;BME280;46916;40.564;-7.958;2023-02-03T06:33:57;98791.34;;;6.51;67.27
61035;BME280;46916;40.564;-7.958;2023-02-03T06:35:58;98791.34;;;6.51;66.62
61035;BME280;46916;40.564;-7.958;2023-02-03T06:37:59;98793.81;;;6.54;66.89
61035;BME280;46916;40.564;-7.958;2023-02-03T06:40:01;98788.66;;;6.52;67.27
61035;BME280;46916;40.564;-7.958;2023-02-03T06:42:02;98797.38;;;6.51;67.19
61035;BME280;46916;40.564;-7.958;2023-02-03T06:44:02;98802.59;;;6.51;67.45
61035;BME280;46916;40.564;-7.958;2023-02-03T06:46:03;98805.19;;;6.51;66.79
61035;BME280;46916;40.564;-7.958;2023-02-03T06:48:04;98800.81;;;6.52;67.30
61035;BME280;46916;40.564;-7.958;2023-02-03T06:50:05;98803.38;;;6.53;67.18
61035;BME280;46916;40.564;-7.958;2023-02-03T06:52:06;98805.06;;;6.54;67.12
61035;BME280;46916;40.564;-7.958;2023-02-03T06:54:06;98810.25;;;6.54;66.61
61035;BME280;46916;40.564;-7.958;2023-02-03T06:56:07;98812.78;;;6.56;66.88
61035;BME280;46916;40.564;-7.958;2023-02-03T06:58:08;98807.56;;;6.56;66.63
61035;BME280;46916;40.564;-7.958;2023-02-03T07:00:09;98800.59;;;6.56;67.06
61035;BME280;46916;40.564;-7.958;2023-02-03T07:02:10;98810.25;;;6.54;66.54
61035;BME280;46916;40.564;-7.958;2023-02-03T07:04:11;98809.44;;;6.54;66.89
61035;BME280;46916;40.564;-7.958;2023-02-03T07:06:12;98817.16;;;6.55;66.84
61035;BME280;46916;40.564;-7.958;2023-02-03T07:08:13;98816.22;;;6.56;66.43
61035;BME280;46916;40.564;-7.958;2023-02-03T07:10:14;98817.94;;;6.57;66.34
61035;BME280;46916;40.564;-7.958;2023-02-03T07:12:15;98817.00;;;6.58;66.31
61035;BME280;46916;40.564;-7.958;2023-02-03T07:14:16;98810.03;;;6.59;66.25
61035;BME280;46916;40.564;-7.958;2023-02-03T07:16:17;98813.50;;;6.59;66.36
61035;BME280;46916;40.564;-7.958;2023-02-03T07:18:17;98817.78;;;6.60;66.36
61035;BME280;46916;40.564;-7.958;2023-02-03T07:20:22;98810.81;;;6.61;66.81
61035;BME280;46916;40.564;-7.958;2023-02-03T07:22:23;98811.69;;;6.61;66.59
61035;BME280;46916;40.564;-7.958;2023-02-03T07:24:23;98816.88;;;6.61;66.62
61035;BME280;46916;40.564;-7.958;2023-02-03T07:26:24;98811.59;;;6.63;66.86
61035;BME280;46916;40.564;-7.958;2023-02-03T07:28:25;98810.81;;;6.61;66.36
61035;BME280;46916;40.564;-7.958;2023-02-03T07:30:26;98810.75;;;6.62;66.39
61035;BME280;46916;40.564;-7.958;2023-02-03T07:32:27;98812.44;;;6.63;66.25
61035;BME280;46916;40.564;-7.958;2023-02-03T07:34:28;98821.16;;;6.62;66.51
61035;BME280;46916;40.564;-7.958;2023-02-03T07:36:29;98823.06;;;6.59;67.01
61035;BME280;46916;40.564;-7.958;2023-02-03T07:38:30;98821.44;;;6.56;67.00
61035;BME280;46916;40.564;-7.958;2023-02-03T07:40:31;98830.31;;;6.52;67.12
61035;BME280;46916;40.564;-7.958;2023-02-03T07:42:32;98835.59;;;6.51;66.71
61035;BME280;46916;40.564;-7.958;2023-02-03T07:44:32;98828.75;;;6.48;67.00
61035;BME280;46916;40.564;-7.958;2023-02-03T07:46:33;98828.75;;;6.48;66.78
61035;BME280;46916;40.564;-7.958;2023-02-03T07:48:33;98832.28;;;6.47;67.20
61035;BME280;46916;40.564;-7.958;2023-02-03T07:50:34;98834.75;;;6.50;66.91
61035;BME280;46916;40.564;-7.958;2023-02-03T07:52:35;98833.75;;;6.53;67.32
61035;BME280;46916;40.564;-7.958;2023-02-03T07:54:36;98840.63;;;6.73;66.90
61035;BME280;46916;40.564;-7.958;2023-02-03T07:56:37;98839.47;;;6.97;66.23
61035;BME280;46916;40.564;-7.958;2023-02-03T07:58:38;98844.16;;;7.27;65.47
61035;BME280;46916;40.564;-7.958;2023-02-03T08:00:38;98851.16;;;7.43;64.98
61035;BME280;46916;40.564;-7.958;2023-02-03T08:02:41;98859.81;;;7.61;64.14
61035;BME280;46916;40.564;-7.958;2023-02-03T08:04:41;98854.22;;;7.69;63.62
61035;BME280;46916;40.564;-7.958;2023-02-03T08:06:44;98853.75;;;7.78;63.34
61035;BME280;46916;40.564;-7.958;2023-02-03T08:08:45;98856.81;;;7.86;63.20
61035;BME280;46916;40.564;-7.958;2023-02-03T08:10:46;98858.09;;;7.95;62.98
61035;BME280;46916;40.564;-7.958;2023-02-03T08:12:46;98861.09;;;8.05;62.49
61035;BME280;46916;40.564;-7.958;2023-02-03T08:14:47;98860.63;;;8.14;61.98
61035;BME280;46916;40.564;-7.958;2023-02-03T08:16:48;98861.31;;;8.17;62.08
61035;BME280;46916;40.564;-7.958;2023-02-03T08:18:49;98867.81;;;8.26;62.04
61035;BME280;46916;40.564;-7.958;2023-02-03T08:20:49;98872.19;;;8.43;61.62
61035;BME280;46916;40.564;-7.958;2023-02-03T08:22:51;98874.91;;;8.57;61.21
61035;BME280;46916;40.564;-7.958;2023-02-03T08:24:52;98874.06;;;8.73;60.84
61035;BME280;46916;40.564;-7.958;2023-02-03T08:26:53;98872.50;;;8.86;61.10
61035;BME280;46916;40.564;-7.958;2023-02-03T08:28:53;98871.88;;;8.97;61.21
61035;BME280;46916;40.564;-7.958;2023-02-03T08:30:54;98873.81;;;9.09;61.16
61035;BME280;46916;40.564;-7.958;2023-02-03T08:32:57;98872.47;;;9.17;60.46
61035;BME280;46916;40.564;-7.958;2023-02-03T08:34:57;98866.81;;;9.25;60.10
61035;BME280;46916;40.564;-7.958;2023-02-03T08:36:58;98877.41;;;9.38;59.60
61035;BME280;46916;40.564;-7.958;2023-02-03T08:38:59;98878.59;;;9.48;58.98
61035;BME280;46916;40.564;-7.958;2023-02-03T08:41:00;98882.34;;;9.58;58.47
61035;BME280;46916;40.564;-7.958;2023-02-03T08:43:00;98885.97;;;9.72;58.30
61035;BME280;46916;40.564;-7.958;2023-02-03T08:45:01;98884.09;;;9.74;57.55
61035;BME280;46916;40.564;-7.958;2023-02-03T08:47:02;98888.97;;;9.80;57.26
61035;BME280;46916;40.564;-7.958;2023-02-03T08:49:03;98890.28;;;9.87;57.02
61035;BME280;46916;40.564;-7.958;2023-02-03T08:51:14;98889.66;;;9.98;57.07
61035;BME280;46916;40.564;-7.958;2023-02-03T08:53:15;98893.41;;;10.08;56.79
61035;BME280;46916;40.564;-7.958;2023-02-03T08:55:16;98899.69;;;10.20;56.47
61035;BME280;46916;40.564;-7.958;2023-02-03T08:57:16;98897.41;;;10.29;56.20
61035;BME280;46916;40.564;-7.958;2023-02-03T08:59:18;98895.34;;;10.34;55.74
61035;BME280;46916;40.564;-7.958;2023-02-03T09:01:19;98891.72;;;10.37;55.17
61035;BME280;46916;40.564;-7.958;2023-02-03T09:03:20;98893.22;;;10.41;55.21
61035;BME280;46916;40.564;-7.958;2023-02-03T09:05:20;98897.13;;;10.48;55.47
61035;BME280;46916;40.564;-7.958;2023-02-03T09:07:21;98890.03;;;10.50;55.56
61035;BME280;46916;40.564;-7.958;2023-02-03T09:09:22;98892.06;;;10.59;55.74
61035;BME280;46916;40.564;-7.958;2023-02-03T09:11:23;98889.66;;;10.71;55.02
61035;BME280;46916;40.564;-7.958;2023-02-03T09:13:24;98892.28;;;10.71;54.91
61035;BME280;46916;40.564;-7.958;2023-02-03T09:15:25;98900.69;;;10.76;54.88
61035;BME280;46916;40.564;-7.958;2023-02-03T09:17:26;98893.47;;;10.79;55.08
61035;BME280;46916;40.564;-7.958;2023-02-03T09:19:27;98894.78;;;10.86;54.52
61035;BME280;46916;40.564;-7.958;2023-02-03T09:21:29;98893.06;;;10.85;54.15
61035;BME280;46916;40.564;-7.958;2023-02-03T09:23:30;98900.03;;;10.86;54.77
61035;BME280;46916;40.564;-7.958;2023-02-03T09:25:32;98894.84;;;10.85;54.57
61035;BME280;46916;40.564;-7.958;2023-02-03T09:27:32;98900.03;;;10.86;54.54
61035;BME280;46916;40.564;-7.958;2023-02-03T09:29:33;98906.00;;;10.88;54.59
61035;BME280;46916;40.564;-7.958;2023-02-03T09:31:34;98904.22;;;10.89;54.70
61035;BME280;46916;40.564;-7.958;2023-02-03T09:33:36;98907.50;;;10.93;54.96
61035;BME280;46916;40.564;-7.958;2023-02-03T09:35:36;98904.88;;;10.93;54.12
61035;BME280;46916;40.564;-7.958;2023-02-03T09:37:37;98913.03;;;10.88;54.80
61035;BME280;46916;40.564;-7.958;2023-02-03T09:39:38;98924.28;;;10.90;54.76
61035;BME280;46916;40.564;-7.958;2023-02-03T09:42:18;98919.56;;;10.95;54.47
61035;BME280;46916;40.564;-7.958;2023-02-03T09:44:49;98932.28;;;11.01;54.38
61035;BME280;46916;40.564;-7.958;2023-02-03T09:46:58;98920.47;;;11.08;54.30
61035;BME280;46916;40.564;-7.958;2023-02-03T09:49:13;98922.06;;;11.11;54.47
61035;BME280;46916;40.564;-7.958;2023-02-03T09:51:24;98921.03;;;11.13;54.31
61035;BME280;46916;40.564;-7.958;2023-02-03T09:53:36;98924.94;;;11.21;54.34
61035;BME280;46916;40.564;-7.958;2023-02-03T09:55:47;98927.19;;;11.27;54.21
61035;BME280;46916;40.564;-7.958;2023-02-03T09:57:57;98925.97;;;11.32;54.39
61035;BME280;46916;40.564;-7.958;2023-02-03T10:00:13;98925.75;;;11.35;54.30
61035;BME280;46916;40.564;-7.958;2023-02-03T10:07:30;98925.13;;;11.32;53.93
61035;BME280;46916;40.564;-7.958;2023-02-03T10:10:00;98917.59;;;11.40;53.97
61035;BME280;46916;40.564;-7.958;2023-02-03T10:19:56;98927.91;;;11.43;52.97
61035;BME280;46916;40.564;-7.958;2023-02-03T10:21:59;98935.00;;;11.41;53.80
61035;BME280;46916;40.564;-7.958;2023-02-03T10:24:03;98930.13;;;11.49;53.92
61035;BME280;46916;40.564;-7.958;2023-02-03T10:26:09;98935.41;;;11.62;52.91
61035;BME280;46916;40.564;-7.958;2023-02-03T10:28:19;98935.75;;;11.70;53.42
61035;BME280;46916;40.564;-7.958;2023-02-03T10:30:22;98933.38;;;11.80;52.44
61035;BME280;46916;40.564;-7.958;2023-02-03T10:32:26;98930.56;;;11.83;52.23
61035;BME280;46916;40.564;-7.958;2023-02-03T10:34:27;98936.47;;;11.86;52.23
61035;BME280;46916;40.564;-7.958;2023-02-03T10:36:56;98934.91;;;11.84;52.12
61035;BME280;46916;40.564;-7.958;2023-02-03T10:39:03;98930.19;;;11.89;52.38
61035;BME280;46916;40.564;-7.958;2023-02-03T10:41:06;98928.72;;;11.98;52.63
61035;BME280;46916;40.564;-7.958;2023-02-03T10:43:09;98931.56;;;12.07;51.58
61035;BME280;46916;40.564;-7.958;2023-02-03T10:45:33;98932.97;;;12.13;51.51
61035;BME280;46916;40.564;-7.958;2023-02-03T10:47:47;98924.97;;;12.27;51.41
61035;BME280;46916;40.564;-7.958;2023-02-03T10:49:52;98928.34;;;12.42;50.97
61035;BME280;46916;40.564;-7.958;2023-02-03T10:51:58;98926.88;;;12.51;50.09
61035;BME280;46916;40.564;-7.958;2023-02-03T10:54:02;98925.19;;;12.62;50.65
61035;BME280;46916;40.564;-7.958;2023-02-03T10:58:09;98923.91;;;12.81;49.86
61035;BME280;46916;40.564;-7.958;2023-02-03T11:02:21;98925.78;;;12.92;50.44
61035;BME280;46916;40.564;-7.958;2023-02-03T11:04:30;98925.97;;;13.01;48.52
61035;BME280;46916;40.564;-7.958;2023-02-03T11:06:32;98922.50;;;13.01;48.68
61035;BME280;46916;40.564;-7.958;2023-02-03T11:08:35;98916.63;;;12.97;49.38
61035;BME280;46916;40.564;-7.958;2023-02-03T11:10:37;98917.66;;;13.07;49.51
61035;BME280;46916;40.564;-7.958;2023-02-03T11:12:40;98923.44;;;13.12;49.08
61035;BME280;46916;40.564;-7.958;2023-02-03T11:14:47;98917.19;;;13.26;49.02
61035;BME280;46916;40.564;-7.958;2023-02-03T11:16:48;98914.00;;;13.34;48.53
61035;BME280;46916;40.564;-7.958;2023-02-03T11:20:52;98911.25;;;13.48;47.91
61035;BME280;46916;40.564;-7.958;2023-02-03T11:22:53;98912.41;;;13.44;48.19
61035;BME280;46916;40.564;-7.958;2023-02-03T11:24:56;98918.28;;;13.48;48.78
61035;BME280;46916;40.564;-7.958;2023-02-03T11:27:03;98914.03;;;13.58;48.45
61035;BME280;46916;40.564;-7.958;2023-02-03T11:29:21;98913.13;;;13.70;48.21
61035;BME280;46916;40.564;-7.958;2023-02-03T11:31:28;98912.16;;;13.71;47.63
61035;BME280;46916;40.564;-7.958;2023-02-03T11:33:30;98918.66;;;13.78;48.07
61035;BME280;46916;40.564;-7.958;2023-02-03T11:35:30;98910.41;;;13.83;48.46
61035;BME280;46916;40.564;-7.958;2023-02-03T11:37:40;98905.41;;;13.91;48.40